Impacts TAF Board
For situational awareness. Not to be used for flight planning purposes.
IDs:

KCLT - Charlotte/Douglas In, NC, US

Issued at 2339 UTC 22 Sep 2018
Updated at 0238 UTC 23 Sep 2018
Potential Impact None Slight Moderate High
Time<<24/03Z 24/04Z 24/05Z 24/06Z 24/07Z 24/08Z 24/09Z 24/10Z 24/11Z 24/12Z 24/13Z 24/14Z 24/15Z
Type PRVL
  [PRB30]  
PRVL
  [PRB30]  
PRVL
  [PRB30]  
VIS 6
  [4]  
6
  [4]  
6
  [4]  
CIG 15
  [7]  
15
  [7]  
15
  [7]  
Cover OVC
  [OVC]  
OVC
  [OVC]  
OVC
  [OVC]  
FltCat MVFR
  [IFR]  
MVFR
  [IFR]  
MVFR
  [IFR]  
WX BR
  [-RA BR]  
BR
  [-RA BR]  
BR
  [-RA BR]  
WDir 50
[50]
50
[50]
50
[50]
WSpd 7
  [7]  
7
  [7]  
7
  [7]  
WGst --
  [--]  
--
  [--]  
--
  [--]  
Raw TAF
KCLT 222339Z 2300/2406 17004KT P6SM FEW250
  FM230800 15003KT P6SM BKN070
  FM231200 04004KT P6SM BKN025 OVC035
  FM231800 05007KT P6SM SCT026 BKN045
  PROB30 2319/2324 4SM -SHRA OVC025
  FM240000 05007KT 6SM BR SCT007 OVC015
  PROB30 2400/2406 4SM -RA BR OVC007


METAR Board
Radar Display
Forecast Discussion
For situational awareness. Not to be used for flight planning purposes.